createdAt,value
2019-02-28T00:01:54.993Z,7.00
2019-02-28T00:04:44.976Z,7.00
2019-02-28T00:07:35.065Z,6.90
2019-02-28T00:10:25.048Z,6.90
2019-02-28T00:13:14.737Z,6.90
2019-02-28T00:16:04.789Z,6.80
2019-02-28T00:18:54.897Z,6.80
2019-02-28T00:21:44.505Z,6.80
2019-02-28T00:24:34.264Z,6.80
2019-02-28T00:27:24.015Z,6.90
2019-02-28T00:30:14.815Z,6.90
2019-02-28T00:33:04.813Z,6.90
2019-02-28T00:35:54.491Z,6.80
2019-02-28T00:38:44.356Z,6.80
2019-02-28T00:41:34.386Z,6.80
2019-02-28T00:44:24.003Z,6.80
2019-02-28T00:47:17.073Z,6.80
2019-02-28T00:50:06.853Z,6.70
2019-02-28T00:52:56.634Z,6.70
2019-02-28T00:55:47.050Z,6.70
2019-02-28T00:58:37.854Z,6.60
2019-02-28T01:01:27.624Z,6.60
2019-02-28T01:04:17.511Z,6.60
2019-02-28T01:07:07.386Z,6.60
2019-02-28T01:09:57.456Z,6.60
2019-02-28T01:12:50.170Z,6.50
2019-02-28T01:15:44.416Z,6.50
2019-02-28T01:18:34.478Z,6.50
2019-02-28T01:21:23.940Z,6.50
2019-02-28T01:24:12.814Z,6.50
2019-02-28T01:27:02.514Z,6.50
2019-02-28T01:29:52.816Z,6.30
2019-02-28T01:32:42.910Z,6.30
2019-02-28T01:35:32.662Z,6.30
2019-02-28T01:38:23.963Z,6.10
2019-02-28T01:41:13.453Z,6.10
2019-02-28T01:44:03.557Z,6.10
2019-02-28T01:46:53.522Z,6.10
2019-02-28T01:49:43.385Z,6.10
2019-02-28T01:52:33.373Z,6.10
2019-02-28T01:55:23.095Z,6.10
2019-02-28T01:58:16.593Z,6.00
2019-02-28T02:01:05.715Z,6.00
2019-02-28T02:03:55.706Z,6.00
2019-02-28T02:06:45.545Z,5.90
2019-02-28T02:09:35.536Z,5.90
2019-02-28T02:12:25.112Z,5.90
2019-02-28T02:15:16.784Z,5.90
2019-02-28T02:18:09.276Z,5.80
2019-02-28T02:21:00.134Z,5.70
2019-02-28T02:23:49.562Z,5.70
2019-02-28T02:26:42.272Z,5.70
2019-02-28T02:29:32.393Z,5.60
2019-02-28T02:32:23.212Z,5.60
2019-02-28T02:35:13.061Z,5.50
2019-02-28T02:38:04.582Z,5.50
2019-02-28T02:40:58.942Z,5.50
2019-02-28T02:43:45.692Z,5.50
2019-02-28T02:46:35.894Z,5.40
2019-02-28T02:49:26.141Z,5.40
2019-02-28T02:52:15.613Z,5.40
2019-02-28T02:55:05.665Z,5.50
2019-02-28T02:57:56.626Z,5.50
2019-02-28T03:00:51.321Z,5.50
2019-02-28T03:03:42.856Z,5.50
2019-02-28T03:06:29.198Z,5.50
2019-02-28T03:09:19.142Z,5.40
2019-02-28T03:12:09.244Z,5.40
2019-02-28T03:14:58.883Z,5.40
2019-02-28T03:17:49.155Z,5.30
2019-02-28T03:20:41.181Z,5.30
2019-02-28T03:23:30.379Z,5.30
2019-02-28T03:26:20.102Z,5.30
2019-02-28T03:29:09.988Z,5.30
2019-02-28T03:31:59.966Z,5.30
2019-02-28T03:34:58.154Z,5.30
2019-02-28T03:37:41.455Z,5.20
2019-02-28T03:40:31.358Z,5.20
2019-02-28T03:43:20.888Z,5.30
2019-02-28T03:46:11.628Z,5.30
2019-02-28T03:49:01.607Z,5.30
2019-02-28T03:51:51.518Z,5.30
2019-02-28T03:54:42.163Z,5.30
2019-02-28T03:57:33.397Z,5.30
2019-02-28T04:00:23.178Z,5.30
2019-02-28T04:03:13.459Z,5.30
2019-02-28T04:06:04.981Z,5.20
2019-02-28T04:08:55.033Z,5.20
2019-02-28T04:11:44.660Z,5.20
2019-02-28T04:14:34.342Z,5.20
2019-02-28T04:17:30.120Z,5.20
2019-02-28T04:20:15.993Z,5.20
2019-02-28T04:23:05.594Z,5.20
2019-02-28T04:25:56.775Z,5.20
2019-02-28T04:28:53.518Z,5.20
2019-02-28T04:31:38.283Z,5.20
2019-02-28T04:34:27.892Z,5.20
2019-02-28T04:37:17.686Z,5.20
2019-02-28T04:40:07.695Z,5.30
2019-02-28T04:42:57.611Z,5.30
2019-02-28T04:45:47.467Z,5.20
2019-02-28T04:48:37.609Z,5.30
2019-02-28T04:51:27.575Z,5.30
2019-02-28T04:54:17.585Z,5.30
2019-02-28T04:57:07.552Z,5.30
2019-02-28T04:59:57.526Z,5.30
2019-02-28T05:02:47.835Z,5.40
2019-02-28T05:05:38.764Z,5.40
2019-02-28T05:08:28.512Z,5.40
2019-02-28T05:11:18.494Z,5.50
2019-02-28T05:14:08.290Z,5.50
2019-02-28T05:16:58.142Z,5.40
2019-02-28T05:19:47.954Z,5.40
2019-02-28T05:22:37.592Z,5.40
2019-02-28T05:25:28.756Z,5.40
2019-02-28T05:28:18.472Z,5.40
2019-02-28T05:31:08.524Z,5.30
2019-02-28T05:33:58.622Z,5.40
2019-02-28T05:36:48.065Z,5.30
2019-02-28T05:39:38.012Z,5.30
2019-02-28T05:42:27.705Z,5.30
2019-02-28T05:45:17.506Z,5.30
2019-02-28T05:48:07.196Z,5.40
2019-02-28T05:50:57.373Z,5.40
2019-02-28T05:53:47.112Z,5.40
2019-02-28T05:56:37.045Z,5.40
2019-02-28T05:59:27.557Z,5.40
2019-02-28T06:02:18.953Z,5.40
2019-02-28T06:05:12.007Z,5.40
2019-02-28T06:08:03.291Z,5.40
2019-02-28T06:10:51.845Z,5.40
2019-02-28T06:13:41.312Z,5.40
2019-02-28T06:16:30.997Z,5.40
2019-02-28T06:19:21.081Z,5.40
2019-02-28T06:22:11.067Z,5.40
2019-02-28T06:25:00.871Z,5.40
2019-02-28T06:27:50.937Z,5.40
2019-02-28T06:30:42.640Z,5.50
2019-02-28T06:33:33.579Z,5.50
2019-02-28T06:36:25.738Z,5.50
2019-02-28T06:39:14.828Z,5.60
2019-02-28T06:42:04.333Z,5.50
2019-02-28T06:44:53.992Z,5.60
2019-02-28T06:47:47.996Z,5.60
2019-02-28T06:50:35.126Z,5.60
2019-02-28T06:53:24.886Z,5.60
2019-02-28T06:56:16.333Z,5.70
2019-02-28T06:59:06.026Z,5.60
2019-02-28T07:01:57.554Z,5.70
2019-02-28T07:04:49.531Z,5.70
2019-02-28T07:07:38.774Z,5.80
2019-02-28T07:10:28.838Z,5.80
2019-02-28T07:13:18.927Z,5.80
2019-02-28T07:16:09.965Z,5.80
2019-02-28T07:19:00.216Z,5.80
2019-02-28T07:21:49.757Z,5.90
2019-02-28T07:24:39.135Z,5.90
2019-02-28T07:27:29.823Z,5.90
2019-02-28T07:30:19.699Z,5.90
2019-02-28T07:33:10.571Z,6.00
2019-02-28T07:36:00.602Z,6.00
2019-02-28T07:38:53.352Z,5.90
2019-02-28T07:41:43.455Z,6.00
2019-02-28T07:44:33.084Z,6.00
2019-02-28T07:47:25.356Z,6.00
2019-02-28T07:50:14.833Z,6.10
2019-02-28T07:53:05.515Z,6.10
2019-02-28T07:55:56.945Z,6.10
2019-02-28T07:58:46.655Z,6.00
2019-02-28T08:01:36.223Z,6.10
2019-02-28T08:04:26.078Z,6.10
2019-02-28T08:07:15.953Z,6.10
2019-02-28T08:10:07.658Z,6.10
2019-02-28T08:12:57.323Z,6.20
2019-02-28T08:15:47.464Z,6.20
2019-02-28T08:18:37.431Z,6.30
2019-02-28T08:21:27.223Z,6.30
2019-02-28T08:24:17.184Z,6.20
2019-02-28T08:27:07.092Z,6.30
2019-02-28T08:29:56.955Z,6.30
2019-02-28T08:32:47.164Z,6.40
2019-02-28T08:35:37.875Z,6.40
2019-02-28T08:38:30.067Z,6.40
2019-02-28T08:41:19.059Z,6.50
2019-02-28T08:44:09.135Z,6.50
2019-02-28T08:46:58.911Z,6.70
2019-02-28T08:49:48.497Z,6.70
2019-02-28T08:52:41.207Z,6.80
2019-02-28T08:55:29.480Z,6.90
2019-02-28T08:58:19.652Z,6.90
2019-02-28T09:01:09.469Z,7.00
2019-02-28T09:04:04.101Z,7.10
2019-02-28T09:06:51.052Z,7.00
2019-02-28T09:09:40.832Z,7.10
2019-02-28T09:12:33.350Z,7.10
2019-02-28T09:15:22.553Z,7.30
2019-02-28T09:18:12.145Z,7.30
2019-02-28T09:21:01.431Z,7.40
2019-02-28T09:23:51.021Z,7.50
2019-02-28T09:26:40.933Z,7.60
2019-02-28T09:29:30.935Z,7.50
2019-02-28T09:32:20.383Z,7.40
2019-02-28T09:35:13.822Z,7.60
2019-02-28T09:38:06.328Z,7.70
2019-02-28T09:40:53.437Z,7.60
2019-02-28T09:43:43.216Z,7.70
2019-02-28T09:46:32.986Z,7.80
2019-02-28T09:49:22.933Z,7.70
2019-02-28T09:52:12.979Z,7.70
2019-02-28T09:55:02.623Z,7.70
2019-02-28T09:57:54.765Z,7.80
2019-02-28T10:00:46.503Z,7.80
2019-02-28T10:03:34.953Z,7.80
2019-02-28T10:06:24.649Z,8.00
2019-02-28T10:09:16.213Z,8.00
2019-02-28T10:12:07.810Z,8.00
2019-02-28T10:15:00.642Z,8.00
2019-02-28T10:17:49.285Z,8.00
2019-02-28T10:20:40.104Z,8.00
2019-02-28T10:23:29.843Z,8.20
2019-02-28T10:26:20.064Z,8.30
2019-02-28T10:29:09.828Z,8.40
2019-02-28T10:31:59.461Z,8.50
2019-02-28T10:34:49.161Z,8.50
2019-02-28T10:37:39.284Z,8.50
2019-02-28T10:40:28.826Z,8.30
2019-02-28T10:43:18.704Z,8.40
2019-02-28T10:46:08.304Z,8.40
2019-02-28T10:48:58.286Z,8.60
2019-02-28T10:51:49.785Z,8.50
2019-02-28T10:54:39.564Z,8.50
2019-02-28T10:57:29.148Z,8.70
2019-02-28T11:00:25.574Z,8.60
2019-02-28T11:03:15.884Z,8.60
2019-02-28T11:06:05.671Z,8.90
2019-02-28T11:08:55.315Z,9.10
2019-02-28T11:11:46.284Z,9.30
2019-02-28T11:14:38.710Z,9.30
2019-02-28T11:17:26.715Z,9.30
2019-02-28T11:20:22.168Z,9.50
2019-02-28T11:23:07.897Z,9.50
2019-02-28T11:25:57.611Z,9.60
2019-02-28T11:28:47.351Z,9.60
2019-02-28T11:31:38.084Z,9.50
2019-02-28T11:34:27.396Z,9.60
2019-02-28T11:37:17.084Z,9.60
2019-02-28T11:40:08.540Z,9.50
2019-02-28T11:43:02.851Z,9.30
2019-02-28T11:45:51.104Z,9.30
2019-02-28T11:48:40.664Z,9.50
2019-02-28T11:51:30.377Z,9.50
2019-02-28T11:54:20.521Z,9.50
2019-02-28T11:57:10.852Z,9.40
2019-02-28T12:00:01.526Z,9.40
2019-02-28T12:02:56.743Z,9.50
2019-02-28T12:05:50.151Z,9.60
2019-02-28T12:08:37.275Z,9.50
2019-02-28T12:11:27.515Z,9.60
2019-02-28T12:14:22.887Z,10.10
2019-02-28T12:17:15.066Z,10.30
2019-02-28T12:20:05.519Z,10.50
2019-02-28T12:22:55.961Z,10.60
2019-02-28T12:25:46.143Z,10.10
2019-02-28T12:28:38.279Z,9.90
2019-02-28T12:31:28.106Z,9.80
2019-02-28T12:34:18.142Z,9.80
2019-02-28T12:37:08.338Z,9.90
2019-02-28T12:40:00.388Z,9.70
2019-02-28T12:42:50.615Z,9.60
2019-02-28T12:45:40.834Z,9.50
2019-02-28T12:48:31.301Z,9.50
2019-02-28T12:51:24.971Z,9.40
2019-02-28T12:54:15.025Z,9.50
2019-02-28T12:57:05.066Z,9.50
2019-02-28T12:59:55.238Z,9.50
2019-02-28T13:02:47.106Z,9.60
2019-02-28T13:05:36.964Z,9.60
2019-02-28T13:08:26.847Z,9.70
2019-02-28T13:11:16.955Z,9.80
2019-02-28T13:14:06.879Z,9.70
2019-02-28T13:16:57.569Z,9.90
2019-02-28T13:19:48.214Z,10.20
2019-02-28T13:22:37.976Z,10.10
2019-02-28T13:25:28.061Z,10.30
2019-02-28T13:28:22.430Z,10.30
2019-02-28T13:31:08.982Z,10.30
2019-02-28T13:34:01.119Z,10.20
2019-02-28T13:36:54.264Z,10.00
2019-02-28T13:39:42.185Z,9.80
2019-02-28T13:42:31.987Z,9.80
2019-02-28T13:45:23.752Z,9.90
2019-02-28T13:48:13.298Z,10.00
2019-02-28T13:51:07.999Z,10.20
2019-02-28T13:53:55.127Z,10.30
2019-02-28T13:56:45.260Z,10.50
2019-02-28T13:59:34.888Z,10.60
2019-02-28T14:02:26.268Z,10.40
2019-02-28T14:05:16.241Z,10.40
2019-02-28T14:08:10.208Z,10.50
2019-02-28T14:10:57.048Z,10.40
2019-02-28T14:13:47.060Z,10.40
2019-02-28T14:16:37.028Z,10.40
2019-02-28T14:19:27.046Z,10.30
2019-02-28T14:22:16.546Z,10.40
2019-02-28T14:25:07.301Z,10.40
2019-02-28T14:28:00.258Z,10.40
2019-02-28T14:30:48.780Z,10.40
2019-02-28T14:33:38.515Z,10.40
2019-02-28T14:36:28.519Z,10.30
2019-02-28T14:39:19.651Z,10.40
2019-02-28T14:42:09.913Z,10.30
2019-02-28T14:44:59.522Z,10.20
2019-02-28T14:47:56.999Z,10.10
2019-02-28T14:50:42.230Z,10.00
2019-02-28T14:53:31.561Z,10.00
2019-02-28T14:56:21.491Z,10.00
2019-02-28T14:59:11.300Z,10.00
2019-02-28T15:02:01.250Z,10.00
2019-02-28T15:04:51.105Z,10.00
2019-02-28T15:07:42.043Z,9.90
2019-02-28T15:10:36.128Z,9.80
2019-02-28T15:13:26.326Z,9.80
2019-02-28T15:16:16.013Z,9.80
2019-02-28T15:19:05.878Z,9.70
2019-02-28T15:21:55.977Z,9.60
2019-02-28T15:24:46.802Z,9.60
2019-02-28T15:27:39.015Z,9.60
2019-02-28T15:30:30.559Z,9.60
2019-02-28T15:33:20.516Z,9.50
2019-02-28T15:36:10.393Z,9.40
2019-02-28T15:39:00.352Z,9.40
2019-02-28T15:41:51.257Z,9.30
2019-02-28T15:44:41.165Z,9.30
2019-02-28T15:47:31.275Z,9.20
2019-02-28T15:50:20.781Z,9.10
2019-02-28T15:53:11.430Z,9.00
2019-02-28T15:56:01.893Z,8.80
2019-02-28T15:58:52.655Z,8.80
2019-02-28T16:01:42.121Z,8.60
2019-02-28T16:04:31.658Z,8.60
2019-02-28T16:07:21.331Z,8.60
2019-02-28T16:10:13.148Z,8.50
2019-02-28T16:13:02.940Z,8.50
2019-02-28T16:15:52.731Z,8.50
2019-02-28T16:18:44.055Z,8.50
2019-02-28T16:21:33.582Z,8.40
2019-02-28T16:24:23.426Z,8.40
2019-02-28T16:27:13.272Z,8.30
2019-02-28T16:30:03.286Z,8.20
2019-02-28T16:32:54.275Z,8.20
2019-02-28T16:35:46.674Z,8.10
2019-02-28T16:38:35.297Z,8.00
2019-02-28T16:41:25.266Z,7.90
2019-02-28T16:44:14.919Z,7.80
2019-02-28T16:47:05.324Z,7.70
2019-02-28T16:49:54.976Z,7.60
2019-02-28T16:52:44.896Z,7.60
2019-02-28T16:55:34.438Z,7.50
2019-02-28T16:58:23.958Z,7.40
2019-02-28T17:01:13.895Z,7.30
2019-02-28T17:04:03.474Z,7.30
2019-02-28T17:06:55.032Z,7.20
2019-02-28T17:09:44.945Z,7.10
2019-02-28T17:13:03.126Z,7.10
2019-02-28T17:16:08.984Z,7.10
2019-02-28T17:18:58.886Z,6.90
2019-02-28T17:21:52.221Z,6.80
2019-02-28T17:24:40.270Z,6.80
2019-02-28T17:27:41.126Z,6.70
2019-02-28T17:30:47.479Z,6.70
2019-02-28T17:33:37.874Z,6.60
2019-02-28T17:36:27.577Z,6.60
2019-02-28T17:39:17.424Z,6.50
2019-02-28T17:42:09.020Z,6.50
2019-02-28T17:45:15.618Z,6.40
2019-02-28T17:48:38.696Z,6.40
2019-02-28T17:51:58.586Z,6.30
2019-02-28T17:55:11.055Z,6.30
2019-02-28T17:58:32.637Z,6.20
2019-02-28T18:02:12.357Z,6.20
2019-02-28T18:05:14.145Z,6.20
2019-02-28T18:08:26.019Z,6.00
2019-02-28T18:11:39.867Z,6.00
2019-02-28T18:14:53.810Z,5.90
2019-02-28T18:18:19.058Z,5.90
2019-02-28T18:21:41.064Z,5.90
2019-02-28T18:25:29.586Z,5.90
2019-02-28T18:28:54.865Z,5.90
2019-02-28T18:31:44.625Z,6.00
2019-02-28T18:34:36.192Z,6.10
2019-02-28T18:37:25.721Z,6.10
2019-02-28T18:40:15.534Z,6.20
2019-02-28T18:43:05.319Z,6.20
2019-02-28T18:45:56.828Z,6.20
2019-02-28T18:48:46.856Z,6.20
2019-02-28T18:51:37.494Z,6.20
2019-02-28T18:54:28.368Z,6.20
2019-02-28T18:57:17.852Z,6.10
2019-02-28T19:00:10.227Z,6.10
2019-02-28T19:03:00.024Z,6.10
2019-02-28T19:05:49.840Z,6.20
2019-02-28T19:08:39.722Z,6.10
2019-02-28T19:11:29.567Z,6.10
2019-02-28T19:14:19.480Z,6.10
2019-02-28T19:17:09.468Z,6.10
2019-02-28T19:19:59.466Z,6.10
2019-02-28T19:22:49.155Z,6.00
2019-02-28T19:25:38.878Z,5.90
2019-02-28T19:28:28.815Z,5.90
2019-02-28T19:31:18.772Z,5.90
2019-02-28T19:34:08.658Z,5.90
2019-02-28T19:36:58.302Z,5.90
2019-02-28T19:39:47.913Z,5.90
2019-02-28T19:42:40.644Z,5.80
2019-02-28T19:45:30.747Z,5.80
2019-02-28T19:48:20.371Z,5.80
2019-02-28T19:51:10.508Z,5.80
2019-02-28T19:54:00.115Z,5.80
2019-02-28T19:56:49.575Z,5.80
2019-02-28T19:59:39.489Z,5.90
2019-02-28T20:02:29.193Z,5.90
2019-02-28T20:05:18.792Z,5.90
2019-02-28T20:08:08.329Z,5.70
2019-02-28T20:10:58.262Z,5.70
2019-02-28T20:13:47.631Z,5.70
2019-02-28T20:16:37.802Z,5.70
2019-02-28T20:19:27.526Z,5.70
2019-02-28T20:22:17.891Z,5.60
2019-02-28T20:25:10.193Z,5.70
2019-02-28T20:28:01.743Z,5.70
2019-02-28T20:30:51.335Z,5.70
2019-02-28T20:33:41.205Z,5.70
2019-02-28T20:36:30.876Z,5.60
2019-02-28T20:39:20.764Z,5.70
2019-02-28T20:42:11.051Z,5.60
2019-02-28T20:45:00.744Z,5.60
2019-02-28T20:47:51.744Z,5.60
2019-02-28T20:50:42.352Z,5.60
2019-02-28T20:53:32.116Z,5.60
2019-02-28T20:56:22.075Z,5.60
2019-02-28T20:59:11.498Z,5.60
2019-02-28T21:02:01.472Z,5.60
2019-02-28T21:04:52.074Z,5.60
2019-02-28T21:07:41.666Z,5.60
2019-02-28T21:10:31.599Z,5.70
2019-02-28T21:13:21.292Z,5.60
2019-02-28T21:16:12.098Z,5.60
2019-02-28T21:19:01.905Z,5.60
2019-02-28T21:21:52.154Z,5.60
2019-02-28T21:24:41.855Z,5.50
2019-02-28T21:27:31.600Z,5.50
2019-02-28T21:30:22.429Z,5.50
2019-02-28T21:33:11.987Z,5.60
2019-02-28T21:36:03.134Z,5.60
2019-02-28T21:38:52.788Z,5.60
2019-02-28T21:41:42.684Z,5.60
2019-02-28T21:44:32.580Z,5.60
2019-02-28T21:47:22.485Z,5.60
2019-02-28T21:50:13.311Z,5.60
2019-02-28T21:53:03.944Z,5.60
2019-02-28T21:55:56.947Z,5.70
2019-02-28T21:58:46.875Z,5.70
2019-02-28T22:01:36.584Z,5.60
2019-02-28T22:04:26.081Z,5.60
2019-02-28T22:07:16.544Z,5.60
2019-02-28T22:10:07.006Z,5.60
2019-02-28T22:12:57.191Z,5.60
2019-02-28T22:15:47.405Z,5.50
2019-02-28T22:18:36.661Z,5.50
2019-02-28T22:21:26.348Z,5.50
2019-02-28T22:24:16.533Z,5.50
2019-02-28T22:27:05.984Z,5.50
2019-02-28T22:29:55.972Z,5.40
2019-02-28T22:32:49.812Z,5.40
2019-02-28T22:35:42.941Z,5.30
2019-02-28T22:38:32.684Z,5.30
2019-02-28T22:41:22.603Z,5.30
2019-02-28T22:44:12.169Z,5.30
2019-02-28T22:47:02.059Z,5.30
2019-02-28T22:49:51.571Z,5.30
2019-02-28T22:52:41.392Z,5.30
2019-02-28T22:55:31.482Z,5.30
2019-02-28T22:58:21.124Z,5.30
2019-02-28T23:01:14.792Z,5.30
2019-02-28T23:04:05.014Z,5.30
2019-02-28T23:06:54.814Z,5.30
2019-02-28T23:09:44.865Z,5.30
2019-02-28T23:12:35.594Z,5.30
2019-02-28T23:15:26.182Z,5.30
2019-02-28T23:18:16.444Z,5.30
2019-02-28T23:21:05.955Z,5.20
2019-02-28T23:23:55.755Z,5.10
2019-02-28T23:27:13.352Z,5.10
2019-02-28T23:30:50.136Z,5.10
2019-02-28T23:33:39.709Z,5.20
2019-02-28T23:36:30.096Z,5.10
2019-02-28T23:39:19.782Z,5.10
2019-02-28T23:42:12.873Z,5.10
2019-02-28T23:45:02.523Z,5.10
2019-02-28T23:47:52.426Z,5.20
2019-02-28T23:50:42.085Z,5.20
2019-02-28T23:53:31.750Z,5.10
2019-02-28T23:56:21.765Z,5.10
2019-02-28T23:59:11.591Z,5.10
